Time;durP1;ratioP1;P1;durP2;ratioP2;P2;SDS_P1;SDS_P2;PMS_P1;PMS_P2;Temp;Humidity;BMP_temperature;BMP_pressure;BME280_temperature;BME280_humidity;BME280_pressure;Samples;Min_cycle;Max_cycle;Signal;HPM_P1;HPM_P2
2022/12/22 03:27:35;;;;;;;7.63;5.50;;;8.00;99.90;;;;;;5084085;28;20216;-81
2022/12/22 03:30:02;;;;;;;7.53;4.93;;;8.10;99.90;;;;;;5088838;28;20201;-82
2022/12/22 03:32:30;;;;;;;16.40;5.37;;;8.10;99.90;;;;;;5084888;28;20571;-81
2022/12/22 03:34:57;;;;;;;7.43;5.27;;;8.20;99.90;;;;;;5093895;28;20198;-82
2022/12/22 03:37:24;;;;;;;7.37;5.07;;;8.10;99.90;;;;;;5092526;28;20224;-81
2022/12/22 03:39:51;;;;;;;6.80;5.53;;;8.10;99.90;;;;;;5088719;28;20205;-82
2022/12/22 03:47:47;;;;;;;6.00;4.63;;;8.30;99.90;;;;;;5091092;28;20687;-81
2022/12/22 03:50:14;;;;;;;6.40;5.23;;;8.30;99.90;;;;;;5094195;28;20209;-82
2022/12/22 03:52:41;;;;;;;7.27;5.30;;;8.20;99.90;;;;;;5088070;28;20217;-81
2022/12/22 03:55:08;;;;;;;7.87;5.00;;;8.20;99.90;;;;;;5095276;28;20201;-82
2022/12/22 03:57:35;;;;;;;6.10;5.13;;;8.00;99.90;;;;;;5095161;28;20241;-82
2022/12/22 04:00:02;;;;;;;7.23;5.73;;;8.10;99.90;;;;;;5091895;28;20208;-82
2022/12/22 04:02:29;;;;;;;6.37;5.13;;;8.10;99.90;;;;;;5091141;28;20222;-82
2022/12/22 04:04:57;;;;;;;6.87;5.40;;;8.00;99.90;;;;;;5096532;28;20201;-82
2022/12/22 04:07:24;;;;;;;5.30;4.47;;;8.00;99.90;;;;;;5095369;28;20224;-82
2022/12/22 04:15:22;;;;;;;7.07;5.10;;;8.10;99.90;;;;;;5087707;28;20194;-82
2022/12/22 04:17:49;;;;;;;6.10;5.13;;;8.20;99.90;;;;;;5096497;28;20222;-82
2022/12/22 04:20:17;;;;;;;7.10;5.30;;;8.10;99.90;;;;;;5090459;28;20205;-82
2022/12/22 04:22:44;;;;;;;8.43;5.13;;;8.10;99.90;;;;;;5093488;28;20226;-81
2022/12/22 04:25:10;;;;;;;6.17;5.20;;;8.00;99.90;;;;;;5096608;28;20201;-82
2022/12/22 04:27:37;;;;;;;9.30;6.17;;;8.20;99.90;;;;;;5096318;28;20225;-82
2022/12/22 04:30:06;;;;;;;11.17;5.67;;;8.10;99.90;;;;;;5096984;28;20202;-81
2022/12/22 04:32:34;;;;;;;6.53;4.97;;;8.10;99.90;;;;;;5097665;28;20193;-82
2022/12/22 04:35:00;;;;;;;6.80;5.20;;;8.10;99.90;;;;;;5093983;28;20253;-81
2022/12/22 04:37:28;;;;;;;6.77;5.33;;;8.10;99.90;;;;;;5087656;28;20221;-81
2022/12/22 04:39:55;;;;;;;7.43;5.40;;;7.70;99.90;;;;;;5089777;28;20202;-81
2022/12/22 04:42:22;;;;;;;6.57;5.20;;;7.90;99.90;;;;;;5095775;28;20237;-81
2022/12/22 04:44:50;;;;;;;7.83;5.53;;;7.90;99.90;;;;;;5095048;28;20654;-81
2022/12/22 04:47:17;;;;;;;8.83;6.07;;;7.90;99.90;;;;;;5093023;28;20604;-81
2022/12/22 04:49:43;;;;;;;7.43;5.80;;;8.10;99.90;;;;;;5091766;28;20197;-81
2022/12/22 04:52:10;;;;;;;8.93;5.60;;;8.10;99.90;;;;;;5089902;28;20205;-81
2022/12/22 04:54:38;;;;;;;7.40;5.63;;;8.20;99.90;;;;;;5088471;28;20202;-81
2022/12/22 04:57:05;;;;;;;8.27;5.90;;;8.20;99.90;;;;;;5094393;28;20221;-81
2022/12/22 04:59:32;;;;;;;7.80;5.80;;;8.30;99.90;;;;;;5091083;28;20202;-81
2022/12/22 05:01:59;;;;;;;7.57;5.60;;;8.30;99.90;;;;;;5094249;28;20583;-82
2022/12/22 05:04:26;;;;;;;8.83;5.87;;;8.30;99.90;;;;;;5099868;28;20223;-82
2022/12/22 05:06:52;;;;;;;8.70;5.83;;;8.30;99.90;;;;;;5098398;28;20205;-82
2022/12/22 05:09:19;;;;;;;9.37;5.80;;;8.20;99.90;;;;;;5091112;28;20233;-82
2022/12/22 05:11:47;;;;;;;7.23;5.40;;;8.20;99.90;;;;;;5086549;28;20553;-81
2022/12/22 05:14:14;;;;;;;9.07;6.20;;;8.10;99.90;;;;;;5091386;28;20208;-82
2022/12/22 05:16:41;;;;;;;8.57;6.30;;;8.20;99.90;;;;;;5085645;28;20198;-82
2022/12/22 05:19:08;;;;;;;10.83;6.13;;;8.20;99.90;;;;;;5095714;28;20550;-82
2022/12/22 05:21:35;;;;;;;7.87;5.77;;;8.20;99.90;;;;;;5094292;28;20233;-82
2022/12/22 05:24:01;;;;;;;7.73;5.77;;;8.20;99.90;;;;;;5086406;28;20217;-82
2022/12/22 05:26:28;;;;;;;7.90;5.83;;;8.10;99.90;;;;;;5080541;28;20202;-81
2022/12/22 05:28:56;;;;;;;12.37;6.23;;;8.10;99.90;;;;;;5089951;28;20218;-82
2022/12/22 05:31:24;;;;;;;9.70;6.67;;;8.10;99.90;;;;;;5092999;28;20210;-82
2022/12/22 05:33:51;;;;;;;8.37;5.60;;;8.10;99.90;;;;;;5089319;28;20212;-81
2022/12/22 05:36:19;;;;;;;8.67;6.00;;;8.00;99.90;;;;;;5096726;28;20198;-81
2022/12/22 05:38:46;;;;;;;8.73;6.07;;;8.10;99.90;;;;;;5091588;28;20221;-82
2022/12/22 05:41:13;;;;;;;8.87;5.90;;;8.10;99.90;;;;;;5094428;28;20225;-81
2022/12/22 05:43:40;;;;;;;9.00;6.07;;;8.00;99.90;;;;;;5090201;28;20206;-81
2022/12/22 05:46:10;;;;;;;10.33;6.53;;;8.00;99.90;;;;;;5095658;28;20208;-82
2022/12/22 05:48:38;;;;;;;9.47;6.47;;;7.90;99.90;;;;;;5094749;28;20701;-81
2022/12/22 05:51:05;;;;;;;10.43;6.50;;;7.90;99.90;;;;;;5093529;28;20213;-81
2022/12/22 05:53:32;;;;;;;8.73;6.23;;;7.90;99.90;;;;;;5087535;28;20210;-81
2022/12/22 05:55:59;;;;;;;9.33;6.37;;;7.80;99.90;;;;;;5094368;28;20213;-81
2022/12/22 05:58:25;;;;;;;9.57;6.53;;;7.90;99.90;;;;;;5089769;28;20726;-81
2022/12/22 06:00:56;;;;;;;10.53;6.80;;;7.90;99.90;;;;;;5090813;28;20221;-81
2022/12/22 06:03:24;;;;;;;8.70;6.50;;;8.10;99.90;;;;;;5089631;28;20251;-81
2022/12/22 06:05:52;;;;;;;10.80;6.60;;;8.00;99.90;;;;;;5089120;28;20197;-81
2022/12/22 06:08:19;;;;;;;9.00;6.10;;;8.00;99.90;;;;;;5088526;28;20218;-81
2022/12/22 06:10:46;;;;;;;8.80;6.17;;;8.00;99.90;;;;;;5093956;28;20197;-82
2022/12/22 06:13:13;;;;;;;9.70;6.50;;;8.10;99.90;;;;;;5089756;28;20198;-82
2022/12/22 06:15:39;;;;;;;9.67;6.53;;;8.00;99.90;;;;;;5085067;28;20216;-82
2022/12/22 06:18:06;;;;;;;8.83;6.30;;;8.00;99.90;;;;;;5092019;28;20221;-82
2022/12/22 06:20:34;;;;;;;9.63;7.30;;;7.90;99.90;;;;;;5093408;28;20205;-81
2022/12/22 06:23:01;;;;;;;9.90;6.40;;;7.80;99.90;;;;;;5085126;28;20865;-81
2022/12/22 06:25:28;;;;;;;10.90;7.10;;;8.00;99.90;;;;;;5098747;28;20741;-81
2022/12/22 06:27:55;;;;;;;8.67;6.77;;;7.70;99.90;;;;;;5090327;28;20225;-81
2022/12/22 06:30:22;;;;;;;10.30;7.03;;;7.70;99.90;;;;;;5093360;28;20650;-81
2022/12/22 06:32:48;;;;;;;9.77;7.07;;;7.80;99.90;;;;;;5086256;28;20209;-81
2022/12/22 06:35:15;;;;;;;9.93;7.00;;;7.80;99.90;;;;;;5089009;28;20212;-81
2022/12/22 06:37:44;;;;;;;13.23;8.40;;;7.70;99.90;;;;;;5093135;28;20226;-81
2022/12/22 06:40:11;;;;;;;13.40;8.50;;;7.60;99.90;;;;;;5082592;28;20670;-81
2022/12/22 06:45:39;;;;;;;11.57;7.47;;;7.50;99.90;;;;;;5041012;28;20191;-82
2022/12/22 06:48:07;;;;;;;15.20;8.63;;;7.50;99.90;;;;;;5041893;28;20227;-81
2022/12/22 06:50:34;;;;;;;14.80;9.07;;;7.50;99.90;;;;;;5063372;28;20557;-81
2022/12/22 06:53:03;;;;;;;13.00;8.43;;;7.50;99.90;;;;;;5085647;28;20279;-81
2022/12/22 06:55:30;;;;;;;12.90;8.40;;;7.60;99.90;;;;;;5085045;28;20210;-82
2022/12/22 06:57:57;;;;;;;13.23;7.67;;;7.60;99.90;;;;;;5081309;28;20232;-81
2022/12/22 07:00:24;;;;;;;13.33;8.67;;;7.60;99.90;;;;;;5088486;28;20214;-81
2022/12/22 07:02:50;;;;;;;14.70;8.50;;;7.50;99.90;;;;;;5090935;28;20221;-81
2022/12/22 07:05:17;;;;;;;13.03;8.50;;;7.50;99.90;;;;;;5090352;28;20657;-82
2022/12/22 07:07:44;;;;;;;15.77;8.57;;;7.50;99.90;;;;;;5094686;28;20213;-81
2022/12/22 07:10:13;;;;;;;13.67;7.57;;;7.50;99.90;;;;;;5100974;28;20205;-81
2022/12/22 07:12:39;;;;;;;17.83;9.17;;;7.50;99.90;;;;;;5095227;28;20658;-81
2022/12/22 07:15:08;;;;;;;14.00;8.33;;;7.60;99.90;;;;;;5096115;28;20211;-81
2022/12/22 07:17:34;;;;;;;13.27;7.77;;;7.70;99.90;;;;;;5096100;28;20236;-81
2022/12/22 07:20:01;;;;;;;12.67;8.10;;;7.60;99.90;;;;;;5098404;28;20215;-81
2022/12/22 07:22:28;;;;;;;13.27;9.00;;;7.70;99.90;;;;;;5091895;28;20228;-81
2022/12/22 07:24:55;;;;;;;15.47;8.13;;;7.70;99.90;;;;;;5093776;28;20206;-81
2022/12/22 07:27:23;;;;;;;14.53;9.00;;;7.60;99.90;;;;;;5089979;28;21397;-81
2022/12/22 07:29:50;;;;;;;13.33;8.67;;;7.70;99.90;;;;;;5093311;28;20572;-81
2022/12/22 07:32:16;;;;;;;11.13;7.60;;;7.80;99.90;;;;;;5088583;28;20204;-81
2022/12/22 07:34:43;;;;;;;12.07;7.90;;;7.80;99.90;;;;;;5094769;28;20623;-81
2022/12/22 07:37:12;;;;;;;12.43;7.90;;;7.70;99.90;;;;;;5097397;28;20243;-81
2022/12/22 07:39:39;;;;;;;12.07;7.50;;;7.80;99.90;;;;;;5090928;28;20209;-81
2022/12/22 07:45:03;;;;;;;12.03;7.40;;;7.80;99.90;;;;;;5071400;28;20187;-81
2022/12/22 07:47:30;;;;;;;11.27;7.23;;;7.90;99.90;;;;;;5089202;28;20576;-80
2022/12/22 07:52:40;;;;;;;12.00;7.87;;;7.90;99.90;;;;;;5094603;28;20674;-81
2022/12/22 07:55:09;;;;;;;13.20;8.50;;;7.90;99.90;;;;;;5095875;28;20599;-81
2022/12/22 07:57:35;;;;;;;10.37;7.17;;;7.90;99.90;;;;;;5088619;28;20706;-81
2022/12/22 08:00:04;;;;;;;12.33;7.50;;;7.90;99.90;;;;;;5095256;28;20200;-81
2022/12/22 08:02:31;;;;;;;12.83;7.87;;;7.90;99.90;;;;;;5098304;28;20232;-81
2022/12/22 08:04:58;;;;;;;11.97;7.73;;;7.80;99.90;;;;;;5092682;28;20827;-81
2022/12/22 08:07:25;;;;;;;12.20;7.03;;;7.80;99.90;;;;;;5096361;28;20286;-81
2022/12/22 08:09:52;;;;;;;10.47;6.70;;;7.90;99.90;;;;;;5093828;28;20198;-81
2022/12/22 08:12:19;;;;;;;10.67;6.80;;;7.90;99.90;;;;;;5088821;28;20195;-81
2022/12/22 08:14:47;;;;;;;8.07;5.50;;;7.90;99.90;;;;;;5093865;28;20198;-81
2022/12/22 08:17:15;;;;;;;14.20;6.83;;;7.80;99.90;;;;;;5096300;28;20271;-80
2022/12/22 08:19:42;;;;;;;19.80;11.43;;;7.80;99.90;;;;;;5097558;28;20208;-81
2022/12/22 08:22:08;;;;;;;17.27;10.73;;;7.80;99.90;;;;;;5094759;28;20214;-81
2022/12/22 08:24:35;;;;;;;15.63;10.37;;;7.80;99.90;;;;;;5090082;28;20210;-82
2022/12/22 08:27:05;;;;;;;15.63;9.93;;;7.80;99.90;;;;;;5094539;28;20232;-81
2022/12/22 08:29:36;;;;;;;13.73;8.80;;;8.00;99.90;;;;;;5085352;28;20684;-81
2022/12/22 08:32:03;;;;;;;15.83;10.03;;;7.90;99.90;;;;;;5086569;28;20210;-81
2022/12/22 08:34:31;;;;;;;17.53;10.20;;;7.90;99.90;;;;;;5093910;28;20205;-81
2022/12/22 08:37:00;;;;;;;17.90;11.00;;;7.90;99.90;;;;;;5096663;28;20571;-81
2022/12/22 08:39:30;;;;;;;19.30;11.43;;;7.90;99.90;;;;;;5097238;28;20665;-81
2022/12/22 08:41:58;;;;;;;19.40;11.67;;;7.90;99.90;;;;;;5094350;28;20206;-81
2022/12/22 08:44:27;;;;;;;20.63;12.40;;;8.10;99.90;;;;;;5093953;28;20678;-81
2022/12/22 08:46:56;;;;;;;17.03;10.50;;;8.00;99.90;;;;;;5092833;28;20202;-81
2022/12/22 08:49:23;;;;;;;17.97;10.43;;;8.00;99.90;;;;;;5093411;28;20202;-81
2022/12/22 08:51:52;;;;;;;17.07;10.77;;;8.00;99.90;;;;;;5099104;28;20202;-81
2022/12/22 08:54:20;;;;;;;24.90;10.73;;;8.00;99.90;;;;;;5096469;28;20524;-81
2022/12/22 08:56:47;;;;;;;16.23;9.90;;;8.10;99.90;;;;;;5094786;28;20662;-81
2022/12/22 08:59:14;;;;;;;16.03;9.63;;;8.10;99.90;;;;;;5092939;28;20209;-81
2022/12/22 09:01:42;;;;;;;16.97;10.93;;;8.10;99.90;;;;;;5099004;28;20572;-81
2022/12/22 09:04:11;;;;;;;16.53;10.17;;;8.20;99.90;;;;;;5096196;28;20716;-81
2022/12/22 09:06:38;;;;;;;15.83;10.00;;;8.20;99.90;;;;;;5098185;28;20210;-81
2022/12/22 09:09:08;;;;;;;14.87;9.27;;;8.30;99.90;;;;;;5091008;28;20209;-81
2022/12/22 09:11:36;;;;;;;12.57;8.93;;;8.30;99.90;;;;;;5093532;28;20205;-81
2022/12/22 09:14:02;;;;;;;12.70;6.77;;;8.20;99.90;;;;;;5095933;28;20658;-81
2022/12/22 09:16:31;;;;;;;15.87;6.57;;;8.20;99.90;;;;;;5096020;28;20205;-81
2022/12/22 09:18:58;;;;;;;24.80;6.80;;;7.90;99.90;;;;;;5091813;28;20218;-81
2022/12/22 09:21:25;;;;;;;129.80;10.83;;;7.90;99.90;;;;;;5092563;28;20570;-81
2022/12/22 09:23:52;;;;;;;20.33;4.83;;;7.90;99.90;;;;;;5086780;28;20222;-82
2022/12/22 09:26:22;;;;;;;54.70;7.73;;;7.80;99.90;;;;;;5092119;28;20201;-81
2022/12/22 09:28:50;;;;;;;22.17;5.43;;;7.80;99.90;;;;;;5088670;28;20219;-81
2022/12/22 09:31:17;;;;;;;12.20;5.00;;;7.90;99.90;;;;;;5092172;28;20569;-81
2022/12/22 09:33:44;;;;;;;4.57;3.77;;;8.00;99.90;;;;;;5091894;28;20204;-82
2022/12/22 09:36:12;;;;;;;38.10;5.40;;;8.00;99.90;;;;;;5091511;28;20205;-81
2022/12/22 09:38:41;;;;;;;17.07;5.27;;;8.00;99.90;;;;;;5087426;28;20230;-82
2022/12/22 09:41:10;;;;;;;5.43;4.27;;;7.90;99.90;;;;;;5090325;28;20576;-81
2022/12/22 09:43:38;;;;;;;14.60;4.30;;;7.90;99.90;;;;;;5086222;28;20284;-81
2022/12/22 09:46:05;;;;;;;7.17;5.37;;;7.80;99.90;;;;;;5088422;28;20197;-81
2022/12/22 09:48:36;;;;;;;7.47;5.50;;;8.00;99.90;;;;;;5089462;28;20221;-81
2022/12/22 09:51:04;;;;;;;9.07;6.47;;;8.20;99.90;;;;;;5087703;28;20198;-81
2022/12/22 09:53:31;;;;;;;11.20;7.17;;;8.40;99.90;;;;;;5094008;28;20247;-81
2022/12/22 09:55:58;;;;;;;9.83;6.50;;;8.50;99.90;;;;;;5100862;28;20205;-81
2022/12/22 09:58:28;;;;;;;10.97;7.23;;;8.60;99.90;;;;;;5091641;28;20240;-81
2022/12/22 10:01:06;;;;;;;9.93;6.33;;;8.50;99.90;;;;;;5093733;28;20688;-81
2022/12/22 10:03:43;;;;;;;11.20;7.10;;;8.70;99.90;;;;;;5089183;28;20221;-82
2022/12/22 10:06:17;;;;;;;9.93;6.90;;;8.70;99.90;;;;;;5092695;28;20194;-81
2022/12/22 10:08:44;;;;;;;12.20;8.83;;;8.80;99.90;;;;;;5091171;28;20222;-81
2022/12/22 10:11:14;;;;;;;9.57;6.40;;;8.90;99.90;;;;;;5094659;28;20212;-81
2022/12/22 10:13:41;;;;;;;14.47;10.10;;;8.70;99.90;;;;;;5093604;28;20200;-81
2022/12/22 10:16:24;;;;;;;16.10;11.50;;;8.80;99.90;;;;;;5094761;28;20208;-81
2022/12/22 10:18:59;;;;;;;13.57;8.97;;;8.90;99.90;;;;;;5082830;28;20680;-81
2022/12/22 10:21:26;;;;;;;11.03;7.13;;;8.90;99.90;;;;;;5092763;28;20201;-81
2022/12/22 10:23:53;;;;;;;10.90;6.13;;;8.90;99.90;;;;;;5078514;28;20222;-82
2022/12/22 10:26:24;;;;;;;11.17;7.97;;;8.90;99.90;;;;;;5085042;28;20205;-81
2022/12/22 10:28:55;;;;;;;10.90;7.30;;;9.00;99.90;;;;;;5091396;28;20655;-81
2022/12/22 10:31:25;;;;;;;10.13;6.70;;;8.90;99.90;;;;;;5089959;28;20672;-81
2022/12/22 10:33:54;;;;;;;9.53;7.03;;;9.00;99.90;;;;;;5086397;28;20310;-81
2022/12/22 10:36:24;;;;;;;8.80;6.03;;;9.00;99.90;;;;;;5092274;28;20232;-81
2022/12/22 10:39:01;;;;;;;11.47;6.80;;;9.10;99.90;;;;;;5088283;28;20222;-82
2022/12/22 10:41:30;;;;;;;10.47;6.60;;;9.10;99.90;;;;;;5092585;28;20197;-81
2022/12/22 10:44:00;;;;;;;9.17;6.83;;;9.10;99.90;;;;;;5095645;28;20213;-82
2022/12/22 10:46:36;;;;;;;11.07;8.10;;;9.10;99.90;;;;;;5081158;28;20224;-82
2022/12/22 10:49:16;;;;;;;11.40;6.93;;;9.10;99.90;;;;;;5093687;28;20303;-82
2022/12/22 10:51:46;;;;;;;11.23;6.73;;;9.10;99.90;;;;;;5095274;28;20201;-81
2022/12/22 10:54:27;;;;;;;7.93;6.20;;;9.10;99.90;;;;;;5095690;28;20201;-82
2022/12/22 10:57:03;;;;;;;8.97;5.80;;;9.00;99.90;;;;;;5093777;28;20650;-81
2022/12/22 10:59:32;;;;;;;9.17;6.10;;;9.10;99.90;;;;;;5095541;28;20193;-82
2022/12/22 11:02:28;;;;;;;11.00;6.70;;;9.20;99.90;;;;;;5099738;28;20220;-82
2022/12/22 11:05:01;;;;;;;11.50;6.70;;;9.20;99.90;;;;;;5085699;28;20221;-82
2022/12/22 11:07:31;;;;;;;8.23;5.60;;;9.30;99.90;;;;;;5089637;28;20228;-81
2022/12/22 11:09:57;;;;;;;9.00;5.93;;;9.30;99.90;;;;;;5093956;28;20255;-82
2022/12/22 11:12:38;;;;;;;8.17;5.47;;;9.30;99.90;;;;;;5093328;28;20549;-82
2022/12/22 11:15:16;;;;;;;8.93;5.57;;;9.30;99.90;;;;;;5092229;28;20681;-82
2022/12/22 11:17:49;;;;;;;9.93;6.40;;;9.50;99.90;;;;;;5096642;28;20225;-82
2022/12/22 11:20:44;;;;;;;13.63;9.80;;;9.50;99.90;;;;;;5095612;28;20213;-81
2022/12/22 11:23:19;;;;;;;12.47;8.43;;;9.50;99.90;;;;;;5094335;28;20222;-81
2022/12/22 11:25:57;;;;;;;17.67;9.37;;;9.50;99.90;;;;;;5091818;28;20201;-82
2022/12/22 11:28:39;;;;;;;18.20;9.00;;;9.50;99.90;;;;;;5099956;28;20232;-81
2022/12/22 11:31:22;;;;;;;19.97;10.70;;;9.50;99.90;;;;;;5089155;28;20204;-82
2022/12/22 11:34:06;;;;;;;15.70;8.30;;;9.50;99.90;;;;;;5087491;28;20202;-81
2022/12/22 11:36:49;;;;;;;10.17;6.67;;;9.50;99.90;;;;;;5086283;28;20212;-81
2022/12/22 11:39:20;;;;;;;12.10;8.57;;;9.50;99.90;;;;;;5095857;28;20213;-81
2022/12/22 11:41:59;;;;;;;12.43;9.33;;;9.60;99.90;;;;;;5093975;28;20649;-81
2022/12/22 11:44:41;;;;;;;7.27;5.77;;;9.50;99.90;;;;;;5092979;28;20243;-81
2022/12/22 11:47:18;;;;;;;9.53;5.63;;;9.50;99.90;;;;;;5095887;28;20217;-81
2022/12/22 11:50:16;;;;;;;10.43;6.93;;;9.50;99.90;;;;;;5095541;28;20209;-81
2022/12/22 11:52:54;;;;;;;12.37;6.90;;;9.50;99.90;;;;;;5092379;28;20208;-81
2022/12/22 11:55:29;;;;;;;13.90;7.47;;;9.60;99.90;;;;;;5090535;28;20205;-81
2022/12/22 11:58:10;;;;;;;9.97;6.73;;;9.60;99.90;;;;;;5089729;28;20759;-81
2022/12/22 12:00:43;;;;;;;12.60;8.40;;;9.50;99.90;;;;;;5085682;28;20214;-81
2022/12/22 12:03:34;;;;;;;13.47;7.60;;;9.50;99.90;;;;;;5092073;28;20225;-81
2022/12/22 12:06:24;;;;;;;16.37;9.43;;;9.50;99.90;;;;;;5091742;28;20284;-81
2022/12/22 12:09:11;;;;;;;17.70;10.77;;;9.60;99.90;;;;;;5090424;28;20257;-82
2022/12/22 12:11:47;;;;;;;18.23;10.20;;;9.50;99.90;;;;;;5088043;28;20209;-81
2022/12/22 12:14:24;;;;;;;17.37;10.40;;;9.50;99.90;;;;;;5095565;28;20201;-81
2022/12/22 12:16:58;;;;;;;18.33;10.80;;;9.60;99.90;;;;;;5090292;28;20200;-81
2022/12/22 12:20:02;;;;;;;16.73;9.87;;;9.60;99.90;;;;;;5092873;28;20294;-81
2022/12/22 12:22:46;;;;;;;19.77;9.97;;;9.60;99.90;;;;;;5091049;28;20244;-81
2022/12/22 12:25:23;;;;;;;20.33;10.73;;;9.60;99.90;;;;;;5090837;28;20228;-81
2022/12/22 12:28:04;;;;;;;20.77;11.43;;;9.60;99.90;;;;;;5096025;28;20209;-82
2022/12/22 12:30:40;;;;;;;22.63;12.20;;;9.60;99.90;;;;;;5089930;28;20564;-81
2022/12/22 12:33:13;;;;;;;20.37;11.10;;;9.60;99.90;;;;;;5093198;28;20205;-81
2022/12/22 12:35:51;;;;;;;19.43;11.00;;;9.60;99.90;;;;;;5094981;28;20198;-81
2022/12/22 12:38:28;;;;;;;20.27;11.47;;;9.60;99.90;;;;;;5095831;28;20226;-82
2022/12/22 12:41:01;;;;;;;22.47;12.33;;;9.70;99.90;;;;;;5096664;28;20205;-81
2022/12/22 12:43:29;;;;;;;21.40;12.33;;;9.70;99.90;;;;;;5094583;28;20228;-82
2022/12/22 12:45:56;;;;;;;21.47;12.33;;;9.60;99.90;;;;;;5093640;28;20205;-81
2022/12/22 12:48:41;;;;;;;20.13;11.77;;;9.60;99.90;;;;;;5087401;28;20237;-81
2022/12/22 12:51:46;;;;;;;21.90;13.30;;;9.70;99.90;;;;;;5090297;28;20194;-81
2022/12/22 12:54:39;;;;;;;21.03;11.83;;;9.70;99.90;;;;;;5092853;28;20200;-81
2022/12/22 12:57:29;;;;;;;20.80;12.10;;;9.70;99.90;;;;;;5080225;28;20565;-82
2022/12/22 12:59:57;;;;;;;19.97;10.93;;;9.60;99.90;;;;;;5088036;28;20642;-81
2022/12/22 13:02:38;;;;;;;14.70;8.90;;;9.60;99.90;;;;;;5092027;28;20201;-82
2022/12/22 13:05:31;;;;;;;17.00;9.70;;;9.50;99.90;;;;;;5092968;28;20225;-81
2022/12/22 13:08:14;;;;;;;19.03;10.10;;;9.60;99.90;;;;;;5095624;28;20602;-81
2022/12/22 13:10:45;;;;;;;15.23;9.40;;;9.50;99.90;;;;;;5093418;28;20205;-81
2022/12/22 13:13:28;;;;;;;15.40;9.30;;;9.60;99.90;;;;;;5092835;28;20578;-81
2022/12/22 13:16:24;;;;;;;16.67;9.40;;;9.60;99.90;;;;;;5089746;28;20210;-81
2022/12/22 13:18:51;;;;;;;16.17;9.27;;;9.60;99.90;;;;;;5085678;28;20305;-81
2022/12/22 13:21:24;;;;;;;14.40;8.57;;;9.60;99.90;;;;;;5095492;28;20204;-81
2022/12/22 13:23:59;;;;;;;14.37;8.60;;;9.50;99.90;;;;;;5087692;28;20213;-81
2022/12/22 13:26:31;;;;;;;13.57;8.17;;;9.70;99.90;;;;;;5091743;28;20200;-81
2022/12/22 13:29:00;;;;;;;15.33;8.60;;;9.50;99.90;;;;;;5087796;28;20229;-82
2022/12/22 13:31:32;;;;;;;13.20;8.20;;;9.60;99.90;;;;;;5090652;28;20230;-81
2022/12/22 13:34:06;;;;;;;15.87;9.50;;;9.50;99.90;;;;;;5089692;28;20210;-81
2022/12/22 13:36:34;;;;;;;17.43;9.43;;;9.50;99.90;;;;;;5089552;28;20212;-82
2022/12/22 13:39:03;;;;;;;14.93;9.07;;;9.50;99.90;;;;;;5088114;28;20228;-81
2022/12/22 13:41:33;;;;;;;15.37;8.70;;;9.50;99.90;;;;;;5089974;28;20216;-81
2022/12/22 13:44:05;;;;;;;15.10;9.07;;;9.50;99.90;;;;;;5093448;28;20241;-82
2022/12/22 13:46:34;;;;;;;15.13;9.10;;;9.50;99.90;;;;;;5089891;28;20395;-81
2022/12/22 13:49:03;;;;;;;15.83;9.57;;;9.50;99.90;;;;;;5090443;28;20240;-82
2022/12/22 13:51:35;;;;;;;12.97;8.37;;;9.50;99.90;;;;;;5093738;28;20204;-81
2022/12/22 13:54:09;;;;;;;14.57;8.13;;;9.50;99.90;;;;;;5094365;28;20232;-81
2022/12/22 13:56:40;;;;;;;14.40;7.90;;;9.50;99.90;;;;;;5095689;28;20198;-82
2022/12/22 13:59:28;;;;;;;11.93;7.57;;;9.40;99.90;;;;;;5108450;28;20253;-81
2022/12/22 14:01:58;;;;;;;15.63;8.30;;;9.30;99.90;;;;;;5094888;28;20197;-82
2022/12/22 14:04:25;;;;;;;13.70;8.33;;;9.20;99.90;;;;;;5093741;28;20226;-81
2022/12/22 14:06:53;;;;;;;13.93;8.77;;;9.20;99.90;;;;;;5096850;28;20201;-81
2022/12/22 14:09:22;;;;;;;14.77;8.20;;;9.20;99.90;;;;;;5097065;28;20234;-81
2022/12/22 14:11:54;;;;;;;16.00;9.40;;;9.20;99.90;;;;;;5097072;28;20205;-81
2022/12/22 14:14:25;;;;;;;13.60;7.60;;;9.10;99.90;;;;;;5093549;28;20193;-81
2022/12/22 14:16:54;;;;;;;11.47;7.10;;;9.10;99.90;;;;;;5103249;28;20218;-81
2022/12/22 14:19:22;;;;;;;15.07;8.10;;;9.00;99.90;;;;;;5095436;28;20204;-81
2022/12/22 14:22:01;;;;;;;16.73;7.77;;;9.00;99.90;;;;;;5096014;28;20678;-81
2022/12/22 14:24:30;;;;;;;12.00;7.17;;;8.90;99.90;;;;;;5095890;28;20715;-81
2022/12/22 14:26:59;;;;;;;14.63;8.43;;;8.70;99.90;;;;;;5095872;28;20202;-81
2022/12/22 14:29:28;;;;;;;14.30;7.83;;;8.70;99.90;;;;;;5082596;28;20206;-81
2022/12/22 14:31:56;;;;;;;14.30;7.83;;;8.70;99.90;;;;;;5098879;28;20205;-81
2022/12/22 14:34:26;;;;;;;13.73;7.57;;;8.60;99.90;;;;;;5096060;28;20204;-81
2022/12/22 14:36:53;;;;;;;12.47;7.10;;;8.50;99.90;;;;;;5097207;28;20292;-81
2022/12/22 14:39:22;;;;;;;14.53;7.07;;;8.40;99.90;;;;;;5096308;28;20571;-81
2022/12/22 14:41:52;;;;;;;13.47;7.27;;;8.50;99.90;;;;;;5107005;27;20197;-81
2022/12/22 14:44:23;;;;;;;13.83;7.17;;;8.30;99.90;;;;;;5098941;28;20225;-81
2022/12/22 14:47:13;;;;;;;11.80;6.83;;;8.20;99.90;;;;;;5098789;28;20284;-82
2022/12/22 14:49:46;;;;;;;14.17;6.30;;;8.00;99.90;;;;;;5095080;28;20638;-81
2022/12/22 14:52:21;;;;;;;12.67;5.93;;;7.80;99.90;;;;;;5094174;28;20209;-81
2022/12/22 14:54:49;;;;;;;11.13;6.30;;;7.80;99.90;;;;;;5091393;28;20212;-81
2022/12/22 14:57:20;;;;;;;10.73;5.83;;;7.50;99.90;;;;;;5091374;28;20222;-82
2022/12/22 15:00:00;;;;;;;12.13;6.27;;;7.50;99.90;;;;;;5099954;28;20292;-81
2022/12/22 15:02:30;;;;;;;10.50;5.97;;;7.40;99.90;;;;;;5101516;28;20201;-81
2022/12/22 15:05:13;;;;;;;11.23;6.17;;;7.10;99.90;;;;;;5095640;28;20225;-81
2022/12/22 15:07:46;;;;;;;11.03;5.87;;;7.00;99.90;;;;;;5087130;28;20232;-81
2022/12/22 15:10:12;;;;;;;11.83;6.30;;;7.00;99.90;;;;;;5096907;28;20190;-81
2022/12/22 15:12:39;;;;;;;12.73;6.73;;;6.80;99.90;;;;;;5096439;28;20292;-83
2022/12/22 15:15:18;;;;;;;11.27;6.20;;;6.60;99.90;;;;;;5092134;28;20202;-81
2022/12/22 15:17:47;;;;;;;12.87;7.10;;;6.60;99.90;;;;;;5080527;28;20226;-82
2022/12/22 15:20:19;;;;;;;11.33;5.80;;;6.60;99.90;;;;;;5091607;28;20212;-82
2022/12/22 15:22:46;;;;;;;10.97;6.90;;;6.40;99.90;;;;;;5086137;28;20198;-81
2022/12/22 15:25:15;;;;;;;13.73;7.03;;;6.30;99.90;;;;;;5084263;28;20587;-81
2022/12/22 15:27:41;;;;;;;12.27;7.33;;;6.30;99.90;;;;;;5094097;28;20233;-81
2022/12/22 15:30:09;;;;;;;12.60;7.03;;;6.20;99.90;;;;;;5099045;28;20214;-81
2022/12/22 15:32:38;;;;;;;12.57;7.10;;;6.10;99.90;;;;;;5098173;28;20563;-81
2022/12/22 15:35:15;;;;;;;13.27;7.07;;;6.10;99.90;;;;;;5090098;28;20201;-81
2022/12/22 15:37:42;;;;;;;11.63;6.73;;;6.20;99.90;;;;;;5100000;28;20228;-81
2022/12/22 15:40:17;;;;;;;12.87;6.77;;;6.20;99.90;;;;;;5100522;28;20711;-81
2022/12/22 15:42:43;;;;;;;13.60;7.13;;;6.20;99.90;;;;;;5100800;28;20209;-81
2022/12/22 15:45:12;;;;;;;12.73;6.67;;;6.40;99.90;;;;;;5100943;28;20224;-81
2022/12/22 15:47:41;;;;;;;15.23;7.50;;;6.20;99.90;;;;;;5102363;28;20727;-81
2022/12/22 15:50:10;;;;;;;14.07;7.10;;;6.20;99.90;;;;;;5101680;28;20200;-81
2022/12/22 15:52:37;;;;;;;16.07;7.30;;;6.20;99.90;;;;;;5101546;28;20209;-81
2022/12/22 15:55:05;;;;;;;15.67;7.60;;;6.40;99.90;;;;;;5099808;28;20285;-81
2022/12/22 15:57:32;;;;;;;18.17;7.57;;;6.50;99.90;;;;;;5102408;28;20221;-81
2022/12/22 15:59:59;;;;;;;15.30;7.07;;;6.60;99.90;;;;;;5102085;28;20716;-81
2022/12/22 16:02:26;;;;;;;13.80;7.07;;;6.40;99.90;;;;;;5105939;28;20201;-81
2022/12/22 16:04:54;;;;;;;13.93;7.10;;;6.40;99.90;;;;;;5103188;28;20222;-81
2022/12/22 16:07:21;;;;;;;13.93;7.17;;;6.40;99.90;;;;;;5096565;28;20304;-81
2022/12/22 16:09:48;;;;;;;13.10;7.17;;;6.30;99.90;;;;;;5106003;28;20198;-81
2022/12/22 16:12:18;;;;;;;15.37;7.80;;;6.40;99.90;;;;;;5105818;28;20598;-80
2022/12/22 16:14:47;;;;;;;16.60;7.50;;;6.60;99.90;;;;;;5106139;28;20204;-81
2022/12/22 16:17:18;;;;;;;13.93;7.40;;;6.30;99.90;;;;;;5102911;28;20697;-81
2022/12/22 16:19:45;;;;;;;16.33;7.70;;;6.20;99.90;;;;;;5097985;28;20235;-81
2022/12/22 16:22:15;;;;;;;16.47;8.00;;;6.20;99.90;;;;;;5105741;28;20262;-81
2022/12/22 16:24:45;;;;;;;18.27;8.47;;;6.40;99.90;;;;;;5106345;28;20285;-82
2022/12/22 16:27:13;;;;;;;18.20;8.60;;;6.40;99.90;;;;;;5098800;28;20236;-81
2022/12/22 16:29:43;;;;;;;19.30;8.33;;;6.30;99.90;;;;;;5106014;28;20190;-81
2022/12/22 16:32:22;;;;;;;15.00;7.70;;;6.40;99.90;;;;;;5105282;28;20721;-82
2022/12/22 16:34:48;;;;;;;16.17;8.27;;;6.30;99.90;;;;;;5105905;28;20296;-82
2022/12/22 16:37:17;;;;;;;14.83;7.53;;;6.40;99.90;;;;;;5099078;28;20225;-81
2022/12/22 16:39:44;;;;;;;19.80;9.43;;;6.40;99.90;;;;;;5104569;28;20205;-82
2022/12/22 16:42:13;;;;;;;18.03;7.93;;;6.40;99.90;;;;;;5104343;28;20206;-82
2022/12/22 16:44:41;;;;;;;17.30;8.60;;;6.40;99.90;;;;;;5105015;28;20281;-82
2022/12/22 16:47:15;;;;;;;17.63;8.23;;;6.40;99.90;;;;;;5103371;28;20249;-81
2022/12/22 16:49:44;;;;;;;15.90;7.87;;;6.40;99.90;;;;;;5102907;28;20197;-82
2022/12/22 16:52:20;;;;;;;17.17;8.60;;;6.40;99.90;;;;;;5104211;28;20283;-82